createdAt,value
2018-10-06T00:00:26.618Z,99471.45
2018-10-06T00:02:57.185Z,99473.94
2018-10-06T00:05:27.473Z,99472.27
2018-10-06T00:07:58.158Z,99467.48
2018-10-06T00:10:28.922Z,99458.92
2018-10-06T00:12:59.886Z,99460.39
2018-10-06T00:15:30.508Z,99457.52
2018-10-06T00:18:01.064Z,99392.13
2018-10-06T00:20:31.782Z,99453.84
2018-10-06T00:23:02.586Z,99451.50
2018-10-06T00:25:32.904Z,99440.38
2018-10-06T00:28:03.437Z,99434.72
2018-10-06T00:30:33.796Z,99425.70
2018-10-06T00:33:04.307Z,99417.05
2018-10-06T00:35:34.869Z,99417.62
2018-10-06T00:38:05.428Z,99413.95
2018-10-06T00:40:35.993Z,99411.36
2018-10-06T00:43:06.300Z,99404.54
2018-10-06T00:45:36.528Z,99404.02
2018-10-06T00:48:08.448Z,99402.59
2018-10-06T00:50:38.977Z,99396.05
2018-10-06T00:53:09.224Z,99399.37
2018-10-06T00:55:39.821Z,99396.84
2018-10-06T00:58:10.608Z,99400.48
2018-10-06T01:00:41.134Z,99398.03
2018-10-06T01:03:11.385Z,99397.06
2018-10-06T01:05:41.912Z,99392.66
2018-10-06T01:08:12.774Z,99392.66
2018-10-06T01:10:43.557Z,99389.93
2018-10-06T01:13:14.401Z,99386.93
2018-10-06T01:15:44.936Z,99376.50
2018-10-06T01:18:16.204Z,99374.50
2018-10-06T01:20:46.988Z,99376.26
2018-10-06T01:23:17.745Z,99377.02
2018-10-06T01:25:48.992Z,99372.37
2018-10-06T01:28:19.505Z,99376.15
2018-10-06T01:30:50.022Z,99374.82
2018-10-06T01:33:20.732Z,99371.73
2018-10-06T01:35:51.280Z,99362.36
2018-10-06T01:38:21.826Z,99358.68
2018-10-06T01:40:52.083Z,99362.63
2018-10-06T01:43:22.688Z,99364.44
2018-10-06T01:45:53.162Z,99359.08
2018-10-06T01:48:24.001Z,99356.20
2018-10-06T01:50:54.732Z,99359.25
2018-10-06T01:53:25.356Z,99351.24
2018-10-06T01:55:57.692Z,99347.66
2018-10-06T01:58:28.248Z,99352.00
2018-10-06T02:00:59.719Z,99352.56
2018-10-06T02:03:30.261Z,99354.59
2018-10-06T02:06:00.533Z,99343.22
2018-10-06T02:08:31.892Z,99353.03
2018-10-06T02:11:02.753Z,99355.91
2018-10-06T02:13:33.277Z,99343.93
2018-10-06T02:16:03.800Z,99335.23
2018-10-06T02:18:34.344Z,99336.63
2018-10-06T02:21:04.960Z,99340.77
2018-10-06T02:23:35.495Z,99334.21
2018-10-06T02:26:05.946Z,99332.64
2018-10-06T02:28:36.754Z,99333.87
2018-10-06T02:31:07.608Z,99322.63
2018-10-06T02:33:37.878Z,99322.79
2018-10-06T02:36:08.205Z,99325.63
2018-10-06T02:38:38.773Z,99327.56
2018-10-06T02:41:09.123Z,99317.07
2018-10-06T02:43:39.652Z,99322.59
2018-10-06T02:46:10.292Z,99324.74
2018-10-06T02:48:40.858Z,99318.36
2018-10-06T02:51:11.433Z,99324.19
2018-10-06T02:53:42.004Z,99310.97
2018-10-06T02:56:13.030Z,99314.41
2018-10-06T02:58:44.029Z,99315.62
2018-10-06T03:01:14.742Z,99314.09
2018-10-06T03:03:45.436Z,99314.11
2018-10-06T03:06:16.004Z,99308.97
2018-10-06T03:08:46.563Z,99282.70
2018-10-06T03:11:17.178Z,99311.92
2018-10-06T03:13:47.839Z,99308.84
2018-10-06T03:16:18.397Z,99305.22
2018-10-06T03:18:50.192Z,99304.03
2018-10-06T03:21:20.646Z,99303.26
2018-10-06T03:23:51.824Z,99297.50
2018-10-06T03:26:22.636Z,99273.98
2018-10-06T03:28:54.051Z,99309.45
2018-10-06T03:31:24.568Z,99303.94
2018-10-06T03:33:55.101Z,99297.09
2018-10-06T03:36:25.648Z,99288.33
2018-10-06T03:38:55.956Z,99287.11
2018-10-06T03:41:26.460Z,99289.34
2018-10-06T03:43:56.875Z,99288.58
2018-10-06T03:46:27.433Z,99287.11
2018-10-06T03:48:58.014Z,99289.52
2018-10-06T03:51:28.273Z,99284.19
2018-10-06T03:53:58.856Z,99285.55
2018-10-06T03:56:29.277Z,99286.50
2018-10-06T03:59:02.587Z,99291.70
2018-10-06T04:01:33.114Z,99280.52
2018-10-06T04:04:03.719Z,99276.27
2018-10-06T04:06:34.277Z,99273.61
2018-10-06T04:09:07.241Z,99270.04
2018-10-06T04:11:38.352Z,99271.67
2018-10-06T04:14:08.842Z,99269.05
2018-10-06T04:16:39.085Z,99266.00
2018-10-06T04:19:10.200Z,99258.64
2018-10-06T04:21:45.921Z,99260.50
2018-10-06T04:24:17.842Z,99259.08
2018-10-06T04:26:49.189Z,99258.84
2018-10-06T04:29:19.790Z,99252.37
2018-10-06T04:31:50.196Z,99256.00
2018-10-06T04:34:20.803Z,99256.11
2018-10-06T04:36:51.329Z,99245.08
2018-10-06T04:39:22.919Z,99254.17
2018-10-06T04:41:53.216Z,99256.28
2018-10-06T04:44:23.827Z,99256.97
2018-10-06T04:46:54.351Z,99253.54
2018-10-06T04:49:24.895Z,99259.48
2018-10-06T04:51:55.531Z,99253.43
2018-10-06T04:54:26.114Z,99254.45
2018-10-06T04:56:56.633Z,99260.80
2018-10-06T04:59:27.329Z,99256.91
2018-10-06T05:01:57.939Z,99241.56
2018-10-06T05:04:28.463Z,99254.06
2018-10-06T05:07:00.384Z,99261.78
2018-10-06T05:09:30.655Z,99259.70
2018-10-06T05:12:01.177Z,99251.38
2018-10-06T05:14:31.919Z,99254.16
2018-10-06T05:17:02.981Z,99251.95
2018-10-06T05:19:33.485Z,99250.34
2018-10-06T05:22:04.022Z,99246.18
2018-10-06T05:24:34.574Z,99244.94
2018-10-06T05:27:05.281Z,99241.67
2018-10-06T05:29:36.127Z,99243.22
2018-10-06T05:32:07.067Z,99242.31
2018-10-06T05:34:37.582Z,99239.59
2018-10-06T05:37:08.294Z,99235.50
2018-10-06T05:39:38.809Z,99237.73
2018-10-06T05:42:09.499Z,99240.35
2018-10-06T05:44:39.744Z,99252.83
2018-10-06T05:47:10.297Z,99257.97
2018-10-06T05:49:41.634Z,99222.73
2018-10-06T05:52:12.485Z,99263.50
2018-10-06T05:54:43.183Z,99263.64
2018-10-06T05:57:13.683Z,99262.30
2018-10-06T05:59:44.313Z,99264.57
2018-10-06T06:02:14.976Z,99272.45
2018-10-06T06:04:45.368Z,99266.86
2018-10-06T06:07:15.757Z,99273.28
2018-10-06T06:09:46.376Z,99274.42
2018-10-06T06:12:16.704Z,99269.04
2018-10-06T06:14:47.213Z,99266.48
2018-10-06T06:17:17.773Z,99270.02
2018-10-06T06:19:48.544Z,99277.05
2018-10-06T06:22:19.228Z,99271.44
2018-10-06T06:24:49.915Z,99271.05
2018-10-06T06:27:20.178Z,99270.34
2018-10-06T06:29:50.503Z,99271.74
2018-10-06T06:32:21.116Z,99267.65
2018-10-06T06:34:52.037Z,99268.91
2018-10-06T06:37:23.016Z,99254.81
2018-10-06T06:39:53.701Z,99250.81
2018-10-06T06:42:24.407Z,99251.88
2018-10-06T06:44:55.148Z,99246.44
2018-10-06T06:47:25.961Z,99254.52
2018-10-06T06:49:56.489Z,99260.34
2018-10-06T06:52:27.300Z,99264.38
2018-10-06T06:54:57.996Z,99266.66
2018-10-06T06:57:28.805Z,99260.95
2018-10-06T07:00:00.393Z,99265.36
2018-10-06T07:02:30.839Z,99262.19
2018-10-06T07:05:01.470Z,99264.34
2018-10-06T07:07:31.721Z,99264.97
2018-10-06T07:10:02.299Z,99260.48
2018-10-06T07:12:32.839Z,99254.95
2018-10-06T07:15:03.524Z,99260.67
2018-10-06T07:17:33.746Z,99260.89
2018-10-06T07:20:04.613Z,99262.95
2018-10-06T07:22:35.205Z,99263.46
2018-10-06T07:25:05.922Z,99268.45
2018-10-06T07:27:37.001Z,99263.41
2018-10-06T07:30:07.689Z,99269.36
2018-10-06T07:32:38.233Z,99256.77
2018-10-06T07:35:08.535Z,99260.02
2018-10-06T07:37:38.801Z,99258.34
2018-10-06T07:40:09.383Z,99254.20
2018-10-06T07:42:39.879Z,99254.31
2018-10-06T07:45:10.426Z,99256.01
2018-10-06T07:47:41.180Z,99260.99
2018-10-06T07:50:11.787Z,99249.05
2018-10-06T07:52:42.408Z,99251.67
2018-10-06T07:55:12.952Z,99248.38
2018-10-06T07:57:43.539Z,99247.30
2018-10-06T08:00:14.134Z,99235.59
2018-10-06T08:02:44.751Z,99246.48
2018-10-06T08:05:15.450Z,99243.25
2018-10-06T08:07:45.969Z,99237.50
2018-10-06T08:10:16.509Z,99227.55
2018-10-06T08:12:46.751Z,99235.45
2018-10-06T08:15:17.533Z,99247.90
2018-10-06T08:17:48.368Z,99238.79
2018-10-06T08:20:19.068Z,99243.75
2018-10-06T08:22:49.304Z,99242.45
2018-10-06T08:25:20.843Z,99244.19
2018-10-06T08:27:51.407Z,99233.03
2018-10-06T08:30:22.258Z,99235.29
2018-10-06T08:32:52.806Z,99227.02
2018-10-06T08:35:23.360Z,99227.63
2018-10-06T08:37:54.156Z,99224.20
2018-10-06T08:40:24.718Z,99235.86
2018-10-06T08:42:55.644Z,99224.60
2018-10-06T08:45:26.394Z,99219.61
2018-10-06T08:47:56.923Z,99214.96
2018-10-06T08:50:27.463Z,99210.91
2018-10-06T08:52:58.047Z,99202.66
2018-10-06T08:55:28.571Z,99195.77
2018-10-06T08:57:59.338Z,99197.24
2018-10-06T09:00:29.905Z,99198.91
2018-10-06T09:03:00.156Z,99191.71
2018-10-06T09:05:30.724Z,99187.94
2018-10-06T09:08:01.257Z,99179.59
2018-10-06T09:10:31.996Z,99177.59
2018-10-06T09:13:02.562Z,99175.72
2018-10-06T09:15:32.881Z,99178.99
2018-10-06T09:18:03.426Z,99180.78
2018-10-06T09:20:34.119Z,99180.84
2018-10-06T09:23:04.907Z,99174.20
2018-10-06T09:25:35.420Z,99171.98
2018-10-06T09:28:06.563Z,99168.53
2018-10-06T09:30:37.498Z,99158.49
2018-10-06T09:33:08.251Z,99169.11
2018-10-06T09:35:39.097Z,99164.70
2018-10-06T09:38:09.635Z,99148.40
2018-10-06T09:40:39.887Z,99150.97
2018-10-06T09:43:10.427Z,99142.39
2018-10-06T09:45:40.992Z,99144.45
2018-10-06T09:48:11.591Z,99139.27
2018-10-06T09:50:42.900Z,99136.25
2018-10-06T09:53:13.439Z,99136.22
2018-10-06T09:55:43.969Z,99138.47
2018-10-06T09:58:14.500Z,99130.07
2018-10-06T10:00:50.402Z,99124.23
2018-10-06T10:03:26.332Z,99124.59
2018-10-06T10:05:56.617Z,99124.15
2018-10-06T10:08:27.044Z,99114.27
2018-10-06T10:10:57.881Z,99113.02
2018-10-06T10:13:28.410Z,99103.61
2018-10-06T10:16:00.708Z,99097.56
2018-10-06T10:18:31.261Z,99090.23
2018-10-06T10:21:01.681Z,99098.80
2018-10-06T10:23:32.355Z,99090.23
2018-10-06T10:26:02.916Z,99092.23
2018-10-06T10:28:34.054Z,99087.02
2018-10-06T10:31:04.629Z,99072.29
2018-10-06T10:33:35.157Z,99071.87
2018-10-06T10:36:05.670Z,99063.50
2018-10-06T10:38:36.252Z,99054.86
2018-10-06T10:41:06.768Z,99056.31
2018-10-06T10:43:38.018Z,99050.45
2018-10-06T10:46:08.412Z,98996.13
2018-10-06T10:48:39.215Z,99050.94
2018-10-06T10:51:09.468Z,99041.30
2018-10-06T10:53:40.505Z,99041.25
2018-10-06T10:56:11.552Z,99034.70
2018-10-06T10:58:42.330Z,99028.32
2018-10-06T11:01:12.759Z,99016.55
2018-10-06T11:03:43.211Z,99024.63
2018-10-06T11:06:13.866Z,99013.86
2018-10-06T11:08:44.968Z,99005.91
2018-10-06T11:11:15.552Z,99008.95
2018-10-06T11:13:46.239Z,98997.98
2018-10-06T11:16:16.582Z,98977.05
2018-10-06T11:18:47.153Z,98982.31
2018-10-06T11:21:17.379Z,98974.68
2018-10-06T11:23:48.167Z,98971.02
2018-10-06T11:26:19.274Z,98973.03
2018-10-06T11:28:49.800Z,98968.81
2018-10-06T11:31:20.325Z,98952.38
2018-10-06T11:33:50.930Z,98942.03
2018-10-06T11:36:21.741Z,98947.20
2018-10-06T11:38:52.582Z,98947.02
2018-10-06T11:41:23.211Z,98943.62
2018-10-06T11:43:53.860Z,98910.36
2018-10-06T11:46:24.433Z,98935.31
2018-10-06T11:48:54.664Z,98933.00
2018-10-06T11:51:25.227Z,98928.75
2018-10-06T11:53:56.049Z,98921.41
2018-10-06T11:56:26.257Z,98921.23
2018-10-06T11:58:56.858Z,98920.60
2018-10-06T12:01:27.386Z,98918.61
2018-10-06T12:03:58.221Z,98925.69
2018-10-06T12:06:28.577Z,98917.67
2018-10-06T12:09:02.840Z,98916.89
2018-10-06T12:11:33.221Z,98915.80
2018-10-06T12:14:03.792Z,98918.40
2018-10-06T12:16:34.393Z,98918.25
2018-10-06T12:19:05.058Z,98903.98
2018-10-06T12:21:35.884Z,98888.72
2018-10-06T12:24:06.757Z,98887.87
2018-10-06T12:26:37.392Z,98894.23
2018-10-06T12:29:07.965Z,98881.51
2018-10-06T12:31:38.244Z,98882.09
2018-10-06T12:34:09.124Z,98882.11
2018-10-06T12:36:39.698Z,98886.41
2018-10-06T12:39:10.501Z,98874.60
2018-10-06T12:41:41.149Z,98872.11
2018-10-06T12:44:11.880Z,98872.78
2018-10-06T12:46:42.446Z,98874.55
2018-10-06T12:49:12.979Z,98878.81
2018-10-06T12:51:43.592Z,98878.93
2018-10-06T12:54:14.230Z,98874.14
2018-10-06T12:56:44.884Z,98871.15
2018-10-06T12:59:15.551Z,98862.97
2018-10-06T13:01:46.197Z,98859.25
2018-10-06T13:04:16.780Z,98845.16
2018-10-06T13:06:47.331Z,98868.13
2018-10-06T13:09:17.995Z,98863.52
2018-10-06T13:11:48.356Z,98864.13
2018-10-06T13:14:18.798Z,98860.59
2018-10-06T13:16:49.511Z,98858.72
2018-10-06T13:19:19.934Z,98857.87
2018-10-06T13:21:50.829Z,98851.57
2018-10-06T13:24:21.130Z,98844.30
2018-10-06T13:26:54.138Z,98844.63
2018-10-06T13:29:24.821Z,98847.80
2018-10-06T13:31:55.568Z,98836.45
2018-10-06T13:34:26.295Z,98751.53
2018-10-06T13:36:56.985Z,98829.27
2018-10-06T13:39:27.545Z,98836.94
2018-10-06T13:41:58.070Z,98835.06
2018-10-06T13:44:28.599Z,98824.43
2018-10-06T13:47:00.164Z,98823.12
2018-10-06T13:49:30.950Z,98825.77
2018-10-06T13:52:01.276Z,98819.61
2018-10-06T13:54:31.637Z,98826.47
2018-10-06T13:57:02.362Z,98815.06
2018-10-06T13:59:33.346Z,98820.83
2018-10-06T14:02:04.153Z,98823.98
2018-10-06T14:04:34.533Z,98821.17
2018-10-06T14:07:04.341Z,98834.00
2018-10-06T14:09:37.337Z,98829.48
2018-10-06T14:12:08.068Z,98828.88
2018-10-06T14:14:39.021Z,98831.12
2018-10-06T14:17:09.716Z,98823.66
2018-10-06T14:19:39.960Z,98820.13
2018-10-06T14:22:10.268Z,98817.25
2018-10-06T14:24:40.724Z,98817.13
2018-10-06T14:27:10.980Z,98818.59
2018-10-06T14:29:41.244Z,98811.69
2018-10-06T14:32:11.532Z,98818.64
2018-10-06T14:34:42.297Z,98813.34
2018-10-06T14:37:13.109Z,98807.55
2018-10-06T14:39:44.054Z,98798.48
2018-10-06T14:42:14.576Z,98808.97
2018-10-06T14:44:45.132Z,98800.46
2018-10-06T14:47:15.448Z,98795.97
2018-10-06T14:49:46.366Z,98797.92
2018-10-06T14:52:16.911Z,98792.19
2018-10-06T14:54:47.742Z,98807.50
2018-10-06T14:57:18.262Z,98794.58
2018-10-06T14:59:49.151Z,98805.08
2018-10-06T15:02:19.662Z,98801.69
2018-10-06T15:04:50.171Z,98814.80
2018-10-06T15:07:20.459Z,98799.43
2018-10-06T15:09:51.237Z,98795.30
2018-10-06T15:12:21.738Z,98797.98
2018-10-06T15:14:52.303Z,98802.35
2018-10-06T15:17:22.840Z,98793.53
2018-10-06T15:19:53.376Z,98785.13
2018-10-06T15:22:23.622Z,98785.80
2018-10-06T15:24:54.431Z,98790.30
2018-10-06T15:27:25.160Z,98791.35
2018-10-06T15:29:55.891Z,98791.30
2018-10-06T15:32:26.422Z,98783.64
2018-10-06T15:34:57.008Z,98779.14
2018-10-06T15:37:28.713Z,98778.98
2018-10-06T15:39:59.313Z,98776.86
2018-10-06T15:42:29.872Z,98775.64
2018-10-06T15:45:00.790Z,98787.78
2018-10-06T15:47:31.096Z,98774.46
2018-10-06T15:50:01.869Z,98774.70
2018-10-06T15:52:32.176Z,98772.65
2018-10-06T15:55:02.716Z,98756.28
2018-10-06T15:57:33.047Z,98769.85
2018-10-06T16:00:03.672Z,98763.55
2018-10-06T16:02:34.610Z,98737.91
2018-10-06T16:05:05.462Z,98771.25
2018-10-06T16:07:35.712Z,98752.81
2018-10-06T16:10:06.837Z,98764.27
2018-10-06T16:12:37.357Z,98757.20
2018-10-06T16:15:07.942Z,98763.89
2018-10-06T16:17:38.484Z,98764.06
2018-10-06T16:20:08.729Z,98771.70
2018-10-06T16:22:38.970Z,98763.88
2018-10-06T16:25:09.523Z,98764.55
2018-10-06T16:27:40.349Z,98761.91
2018-10-06T16:30:11.083Z,98758.41
2018-10-06T16:32:41.797Z,98764.08
2018-10-06T16:35:12.309Z,98763.35
2018-10-06T16:37:43.157Z,98768.09
2018-10-06T16:40:13.981Z,98760.23
2018-10-06T16:42:44.514Z,98764.22
2018-10-06T16:45:15.262Z,98759.86
2018-10-06T16:47:45.825Z,98758.90
2018-10-06T16:50:16.108Z,98744.17
2018-10-06T16:52:46.712Z,98566.38
2018-10-06T16:55:17.496Z,98746.14
2018-10-06T16:57:48.022Z,98740.68
2018-10-06T17:00:19.018Z,98738.93
2018-10-06T17:02:49.735Z,98738.48
2018-10-06T17:05:20.230Z,98746.62
2018-10-06T17:07:50.816Z,98747.89
2018-10-06T17:10:21.599Z,98738.80
2018-10-06T17:12:52.622Z,98742.43
2018-10-06T17:15:23.805Z,98744.49
2018-10-06T17:17:54.301Z,98740.53
2018-10-06T17:20:24.816Z,98744.19
2018-10-06T17:22:55.429Z,98732.28
2018-10-06T17:25:25.984Z,98740.38
2018-10-06T17:27:56.821Z,98740.23
2018-10-06T17:30:27.382Z,98737.41
2018-10-06T17:32:58.216Z,98739.59
2018-10-06T17:35:28.738Z,98614.41
2018-10-06T17:37:59.945Z,98739.23
2018-10-06T17:40:30.455Z,98741.36
2018-10-06T17:43:01.172Z,98737.70
2018-10-06T17:45:31.511Z,98732.97
2018-10-06T17:48:03.180Z,98742.88
2018-10-06T17:50:33.931Z,98741.84
2018-10-06T17:53:04.545Z,98736.76
2018-10-06T17:55:35.143Z,98738.95
2018-10-06T17:58:05.634Z,98743.09
2018-10-06T18:00:36.650Z,98747.75
2018-10-06T18:03:07.072Z,98749.86
2018-10-06T18:05:37.312Z,98755.28
2018-10-06T18:08:08.102Z,98752.67
2018-10-06T18:10:38.912Z,98753.99
2018-10-06T18:13:09.433Z,98753.89
2018-10-06T18:15:41.414Z,98754.73
2018-10-06T18:18:12.058Z,98759.23
2018-10-06T18:20:42.446Z,98758.27
2018-10-06T18:23:12.824Z,98752.02
2018-10-06T18:25:43.664Z,98765.42
2018-10-06T18:28:14.442Z,98764.64
2018-10-06T18:30:44.988Z,98762.66
2018-10-06T18:33:15.884Z,98760.16
2018-10-06T18:35:46.525Z,98758.43
2018-10-06T18:38:17.142Z,98764.83
2018-10-06T18:40:47.408Z,98773.00
2018-10-06T18:43:18.567Z,98773.41
2018-10-06T18:45:50.473Z,98768.00
2018-10-06T18:48:21.048Z,98763.30
2018-10-06T18:50:51.708Z,98774.25
2018-10-06T18:53:21.960Z,98780.87
2018-10-06T18:55:52.754Z,98781.91
2018-10-06T18:58:23.185Z,98774.34
2018-10-06T19:00:53.808Z,98782.78
2018-10-06T19:03:24.709Z,98779.99
2018-10-06T19:05:55.367Z,98780.18
2018-10-06T19:08:25.869Z,98777.75
2018-10-06T19:10:56.887Z,98774.18
2018-10-06T19:13:27.617Z,98774.17
2018-10-06T19:15:58.249Z,98771.30
2018-10-06T19:18:29.194Z,98772.53
2018-10-06T19:21:00.056Z,98770.83
2018-10-06T19:23:30.557Z,98772.16
2018-10-06T19:26:04.108Z,98779.80
2018-10-06T19:28:35.149Z,98776.78
2018-10-06T19:31:06.314Z,98781.78
2018-10-06T19:33:36.840Z,98785.67
2018-10-06T19:36:07.680Z,98779.73
2018-10-06T19:38:38.198Z,98779.06
2018-10-06T19:41:08.480Z,98777.30
2018-10-06T19:43:38.829Z,98782.60
2018-10-06T19:46:09.920Z,98779.81
2018-10-06T19:48:40.438Z,98775.66
2018-10-06T19:51:11.063Z,98775.13
2018-10-06T19:53:41.924Z,98785.75
2018-10-06T19:56:12.530Z,98785.43
2018-10-06T19:58:42.821Z,98785.84
2018-10-06T20:01:13.529Z,98780.51
2018-10-06T20:03:44.095Z,98780.23
2018-10-06T20:06:14.655Z,98781.89
2018-10-06T20:08:45.455Z,98778.88
2018-10-06T20:11:16.591Z,98780.73
2018-10-06T20:13:48.020Z,98770.06
2018-10-06T20:16:19.589Z,98775.06
2018-10-06T20:18:50.281Z,98778.66
2018-10-06T20:21:21.360Z,98781.78
2018-10-06T20:23:53.021Z,98773.89
2018-10-06T20:26:24.455Z,98769.44
2018-10-06T20:28:55.207Z,98762.88
2018-10-06T20:31:25.813Z,98760.27
2018-10-06T20:33:56.414Z,98754.97
2018-10-06T20:36:27.168Z,98753.30
2018-10-06T20:38:58.156Z,98751.14
2018-10-06T20:41:28.998Z,98753.72
2018-10-06T20:43:59.796Z,98745.80
2018-10-06T20:46:30.453Z,98757.38
2018-10-06T20:49:01.381Z,98757.36
2018-10-06T20:51:31.688Z,98753.27
2018-10-06T20:54:01.932Z,98754.32
2018-10-06T20:56:41.850Z,98753.95
2018-10-06T20:59:12.724Z,98739.47
2018-10-06T21:01:43.256Z,98744.59
2018-10-06T21:04:14.233Z,98748.02
2018-10-06T21:06:45.121Z,98743.56
2018-10-06T21:09:16.049Z,98735.13
2018-10-06T21:11:46.889Z,98736.61
2018-10-06T21:14:17.732Z,98740.16
2018-10-06T21:16:48.286Z,98727.84
2018-10-06T21:19:18.584Z,98734.74
2018-10-06T21:21:49.128Z,98722.36
2018-10-06T21:24:19.682Z,98716.44
2018-10-06T21:26:54.034Z,98733.56
2018-10-06T21:29:26.760Z,98726.73
2018-10-06T21:32:00.055Z,98731.11
2018-10-06T21:34:30.932Z,98720.80
2018-10-06T21:37:01.710Z,98719.13
2018-10-06T21:39:33.060Z,98706.72
2018-10-06T21:42:04.072Z,98700.91
2018-10-06T21:44:34.746Z,98701.48
2018-10-06T21:47:06.392Z,98706.72
2018-10-06T21:49:37.408Z,98711.70
2018-10-06T21:52:08.090Z,98708.02
2018-10-06T21:54:38.617Z,98706.36
2018-10-06T21:57:09.316Z,98710.34
2018-10-06T21:59:39.933Z,98711.13
2018-10-06T22:02:10.252Z,98698.48
2018-10-06T22:04:40.592Z,98687.79
2018-10-06T22:07:11.143Z,98694.25
2018-10-06T22:09:42.173Z,98694.98
2018-10-06T22:12:12.476Z,98689.73
2018-10-06T22:14:43.018Z,98685.53
2018-10-06T22:17:13.616Z,98687.05
2018-10-06T22:19:44.144Z,98680.40
2018-10-06T22:22:14.721Z,98683.11
2018-10-06T22:24:46.751Z,98679.05
2018-10-06T22:27:17.863Z,98671.39
2018-10-06T22:29:48.648Z,98669.55
2018-10-06T22:32:18.942Z,98671.58
2018-10-06T22:34:49.654Z,98671.30
2018-10-06T22:37:20.375Z,98680.90
2018-10-06T22:39:50.979Z,98659.77
2018-10-06T22:42:21.269Z,98687.28
2018-10-06T22:44:51.847Z,98670.89
2018-10-06T22:47:22.402Z,98667.84
2018-10-06T22:49:53.387Z,98669.72
2018-10-06T22:52:23.986Z,98660.64
2018-10-06T22:54:54.614Z,98659.16
2018-10-06T22:57:25.202Z,98667.01
2018-10-06T22:59:55.507Z,98666.56
2018-10-06T23:02:26.012Z,98670.25
2018-10-06T23:04:56.578Z,98669.58
2018-10-06T23:07:26.952Z,98666.77
2018-10-06T23:09:57.462Z,98671.05
2018-10-06T23:12:27.767Z,98666.87
2018-10-06T23:14:58.168Z,98668.88
2018-10-06T23:17:28.712Z,98665.25
2018-10-06T23:19:58.974Z,98664.19
2018-10-06T23:22:29.517Z,98665.32
2018-10-06T23:25:00.562Z,98664.28
2018-10-06T23:27:31.782Z,98663.05
2018-10-06T23:30:02.337Z,98653.41
2018-10-06T23:32:32.882Z,98655.64
2018-10-06T23:35:04.010Z,98659.33
2018-10-06T23:37:34.512Z,98650.28
2018-10-06T23:40:05.173Z,98651.39
2018-10-06T23:42:35.728Z,98646.98
2018-10-06T23:45:06.513Z,98647.58
2018-10-06T23:47:37.157Z,98643.06
2018-10-06T23:50:08.314Z,98649.73
2018-10-06T23:52:38.570Z,98650.40
2018-10-06T23:55:09.485Z,98642.05
2018-10-06T23:57:40.039Z,98637.00
